Time;durP1;ratioP1;P1;durP2;ratioP2;P2;SDS_P1;SDS_P2;PMS_P1;PMS_P2;Temp;Humidity;BMP_temperature;BMP_pressure;BME280_temperature;BME280_humidity;BME280_pressure;Samples;Min_cycle;Max_cycle;Signal;HPM_P1;HPM_P2
2023/10/22 00:04:45;;;;;;;1.30;0.55;;;16.40;76.00;;;;;;10535011;28;20456;-61
2023/10/22 00:09:46;;;;;;;1.90;0.50;;;16.40;75.90;;;;;;10534860;28;20059;-61
2023/10/22 00:14:47;;;;;;;3.53;0.60;;;16.40;76.00;;;;;;10516470;28;20028;-61
2023/10/22 00:19:48;;;;;;;1.17;0.47;;;16.40;76.00;;;;;;10533888;28;20027;-61
2023/10/22 00:24:48;;;;;;;1.45;0.50;;;16.40;75.90;;;;;;10534174;28;20024;-61
2023/10/22 00:29:49;;;;;;;1.63;0.68;;;16.40;76.00;;;;;;10533789;28;20032;-61
2023/10/22 00:34:50;;;;;;;1.63;0.60;;;16.40;76.10;;;;;;10534304;28;20031;-61
2023/10/22 00:39:51;;;;;;;1.77;0.40;;;16.40;76.10;;;;;;10533514;28;20035;-61
2023/10/22 00:44:51;;;;;;;1.77;0.55;;;16.40;76.00;;;;;;10533667;28;20811;-61
2023/10/22 00:49:52;;;;;;;1.55;0.70;;;16.40;76.10;;;;;;10533488;28;20077;-61
2023/10/22 00:54:54;;;;;;;2.35;0.50;;;16.40;76.10;;;;;;10533226;28;20048;-61
2023/10/22 00:59:55;;;;;;;1.35;0.85;;;16.40;76.10;;;;;;10531573;28;20090;-61
2023/10/22 01:04:56;;;;;;;2.35;0.90;;;16.40;76.10;;;;;;10531888;28;20443;-61
2023/10/22 01:09:57;;;;;;;1.77;0.52;;;16.40;76.10;;;;;;10532777;28;20024;-61
2023/10/22 01:14:57;;;;;;;1.52;0.50;;;16.40;76.10;;;;;;10532729;28;20485;-61
2023/10/22 01:19:58;;;;;;;1.10;0.40;;;16.40;76.00;;;;;;10532384;28;20034;-61
2023/10/22 01:24:59;;;;;;;1.73;0.50;;;16.40;76.00;;;;;;10532942;28;20028;-61
2023/10/22 01:29:59;;;;;;;0.85;0.40;;;16.40;76.00;;;;;;10532191;28;20509;-61
2023/10/22 01:35:01;;;;;;;0.90;0.35;;;16.40;76.00;;;;;;10533125;28;20039;-61
2023/10/22 01:40:03;;;;;;;1.95;0.60;;;16.40;76.00;;;;;;10531848;28;20024;-61
2023/10/22 01:45:06;;;;;;;2.38;0.50;;;16.40;76.00;;;;;;10532789;28;20036;-61
2023/10/22 01:50:07;;;;;;;2.03;0.80;;;16.30;76.00;;;;;;10535309;28;20036;-61
2023/10/22 01:55:08;;;;;;;1.08;0.30;;;16.30;76.00;;;;;;10540086;28;20391;-61
2023/10/22 02:00:11;;;;;;;0.40;0.30;;;16.40;76.00;;;;;;10539899;28;20016;-61
2023/10/22 02:05:11;;;;;;;1.13;0.60;;;16.30;76.00;;;;;;10539780;28;20647;-61
2023/10/22 02:10:12;;;;;;;1.30;0.60;;;16.30;75.90;;;;;;10539008;28;20032;-61
2023/10/22 02:15:13;;;;;;;0.65;0.40;;;16.30;76.00;;;;;;10539428;28;20463;-61
2023/10/22 02:20:13;;;;;;;1.30;0.45;;;16.40;76.00;;;;;;10538958;28;20040;-61
2023/10/22 02:25:15;;;;;;;1.20;0.50;;;16.40;76.00;;;;;;10537528;28;20032;-61
2023/10/22 02:30:16;;;;;;;0.93;0.30;;;16.30;76.00;;;;;;10536168;28;20052;-61
2023/10/22 02:35:16;;;;;;;0.60;0.40;;;16.30;76.00;;;;;;10538724;28;20455;-61
2023/10/22 02:40:17;;;;;;;0.63;0.40;;;16.30;76.00;;;;;;10538161;28;20024;-61
2023/10/22 02:45:18;;;;;;;1.75;0.52;;;16.30;76.00;;;;;;10538443;28;20032;-61
2023/10/22 02:50:18;;;;;;;0.77;0.40;;;16.30;76.10;;;;;;10536504;28;20031;-61
2023/10/22 02:55:20;;;;;;;1.70;0.75;;;16.30;76.10;;;;;;10537395;28;20040;-61
2023/10/22 03:00:20;;;;;;;1.58;0.50;;;16.30;76.10;;;;;;10536711;28;20039;-61
2023/10/22 03:05:21;;;;;;;1.58;0.75;;;16.30;76.10;;;;;;10537731;28;20028;-61
2023/10/22 03:10:22;;;;;;;1.42;0.35;;;16.30;76.10;;;;;;10536643;28;20051;-61
2023/10/22 03:15:23;;;;;;;1.05;0.40;;;16.30;76.10;;;;;;10536819;28;20032;-61
2023/10/22 03:20:24;;;;;;;1.67;0.40;;;16.30;76.10;;;;;;10536062;28;20024;-60
2023/10/22 03:25:25;;;;;;;0.85;0.50;;;16.30;76.10;;;;;;10535891;28;20028;-61
2023/10/22 03:30:26;;;;;;;1.30;0.95;;;16.30;76.10;;;;;;10533665;28;20032;-61
2023/10/22 03:35:27;;;;;;;0.50;0.45;;;16.30;76.10;;;;;;10536190;28;20093;-61
2023/10/22 03:40:27;;;;;;;1.30;0.60;;;16.30;76.20;;;;;;10535369;28;20413;-61
2023/10/22 03:45:28;;;;;;;1.20;0.60;;;16.30;76.10;;;;;;10536132;28;20028;-61
2023/10/22 03:50:29;;;;;;;1.58;0.60;;;16.30;76.20;;;;;;10535000;28;20027;-61
2023/10/22 03:55:29;;;;;;;1.60;0.40;;;16.30;76.20;;;;;;10535087;28;20036;-61
2023/10/22 04:00:30;;;;;;;0.77;0.30;;;16.30;76.20;;;;;;10534986;28;20048;-61
2023/10/22 04:05:31;;;;;;;0.30;0.22;;;16.30;76.20;;;;;;10535419;28;20069;-61
2023/10/22 04:10:32;;;;;;;2.25;0.57;;;16.30;76.20;;;;;;10534306;28;20031;-61
2023/10/22 04:15:39;;;;;;;1.17;0.43;;;16.30;76.20;;;;;;10534326;28;20148;-61
2023/10/22 04:20:41;;;;;;;2.78;1.02;;;16.30;76.30;;;;;;10532217;28;20084;-61
2023/10/22 04:25:44;;;;;;;0.57;0.30;;;16.30;76.30;;;;;;10531412;28;20012;-61
2023/10/22 04:30:45;;;;;;;0.80;0.55;;;16.30;76.30;;;;;;10532739;28;20109;-61
2023/10/22 04:35:46;;;;;;;1.05;0.38;;;16.30;76.30;;;;;;10533541;28;20028;-61
2023/10/22 04:40:47;;;;;;;1.63;0.55;;;16.40;75.90;;;;;;10528683;28;20080;-60
2023/10/22 04:45:49;;;;;;;1.85;0.73;;;16.40;75.70;;;;;;10530545;28;20035;-61
2023/10/22 04:50:49;;;;;;;0.52;0.32;;;16.50;75.60;;;;;;10531249;28;20059;-60
2023/10/22 04:55:58;;;;;;;0.68;0.35;;;16.40;75.50;;;;;;10530897;28;20044;-61
2023/10/22 05:00:59;;;;;;;0.50;0.30;;;16.50;75.50;;;;;;10532054;28;20101;-61
2023/10/22 05:06:06;;;;;;;1.67;0.70;;;16.50;75.40;;;;;;10532139;28;20028;-61
2023/10/22 05:11:13;;;;;;;1.00;0.35;;;16.60;75.40;;;;;;10531391;28;20024;-61
2023/10/22 05:16:13;;;;;;;0.93;0.50;;;16.50;75.30;;;;;;10529799;28;20168;-63
2023/10/22 05:21:14;;;;;;;1.55;0.50;;;16.60;75.60;;;;;;10526696;28;20028;-60
2023/10/22 05:26:15;;;;;;;5.05;0.80;;;16.60;75.80;;;;;;10534188;28;20043;-60
2023/10/22 05:31:18;;;;;;;3.60;0.88;;;16.70;76.10;;;;;;10534162;28;20028;-59
2023/10/22 05:36:21;;;;;;;2.80;1.05;;;16.80;76.30;;;;;;10538557;28;20056;-60
2023/10/22 05:41:25;;;;;;;2.58;0.90;;;16.90;76.10;;;;;;10538849;28;20032;-58
2023/10/22 05:46:27;;;;;;;4.60;0.80;;;16.90;76.20;;;;;;10537692;28;20028;-59
2023/10/22 05:51:28;;;;;;;6.30;1.27;;;17.00;76.20;;;;;;10538161;28;20109;-58
2023/10/22 05:56:30;;;;;;;4.00;0.85;;;17.00;76.40;;;;;;10538322;28;20105;-59
2023/10/22 06:01:30;;;;;;;4.35;1.00;;;16.90;76.30;;;;;;10537694;28;20028;-57
2023/10/22 06:06:31;;;;;;;6.53;1.25;;;16.80;76.50;;;;;;10540250;28;20478;-60
2023/10/22 06:11:32;;;;;;;3.22;0.80;;;16.80;76.60;;;;;;10538992;28;20379;-59
2023/10/22 06:16:33;;;;;;;5.78;0.88;;;16.80;76.70;;;;;;10539395;28;20165;-60
2023/10/22 06:21:33;;;;;;;4.03;1.27;;;16.80;76.70;;;;;;10537984;28;20031;-59
2023/10/22 06:26:34;;;;;;;3.53;1.00;;;16.80;76.70;;;;;;10534815;28;20020;-60
2023/10/22 06:31:35;;;;;;;2.50;0.68;;;16.80;76.40;;;;;;10536234;28;20063;-60
2023/10/22 06:36:36;;;;;;;6.97;2.35;;;16.70;76.60;;;;;;10537248;28;20036;-61
2023/10/22 06:41:37;;;;;;;3.63;1.33;;;16.60;76.80;;;;;;10537483;28;20046;-61
2023/10/22 06:46:37;;;;;;;2.17;0.80;;;16.70;76.80;;;;;;10537619;28;20035;-62
2023/10/22 06:51:38;;;;;;;2.95;0.95;;;16.60;76.80;;;;;;10537518;28;20023;-62
2023/10/22 06:56:39;;;;;;;2.33;0.60;;;16.60;76.80;;;;;;10512132;28;20040;-62
2023/10/22 07:01:40;;;;;;;4.63;1.00;;;16.60;76.80;;;;;;10493872;28;20488;-62
2023/10/22 07:06:40;;;;;;;3.20;1.17;;;16.50;76.60;;;;;;10494293;28;20484;-61
2023/10/22 07:33:28;;;;;;;2.78;1.13;;;16.40;76.30;;;;;;10421888;28;20417;-61
2023/10/22 07:38:29;;;;;;;4.82;1.10;;;16.40;76.70;;;;;;10317145;28;20034;-61
2023/10/22 07:43:30;;;;;;;4.07;1.05;;;16.50;76.70;;;;;;10326477;28;20117;-61
2023/10/22 07:48:32;;;;;;;6.60;0.95;;;16.50;77.00;;;;;;10327094;28;20490;-61
2023/10/22 07:53:33;;;;;;;6.93;1.00;;;16.50;76.70;;;;;;10313721;28;20034;-61
2023/10/22 07:58:35;;;;;;;5.90;1.75;;;16.60;76.80;;;;;;10323029;28;20382;-61
2023/10/22 08:03:36;;;;;;;5.28;1.25;;;16.60;76.70;;;;;;10314098;28;20031;-60
2023/10/22 08:08:37;;;;;;;10.13;1.60;;;16.60;76.70;;;;;;10311484;28;20093;-61
2023/10/22 08:13:38;;;;;;;7.85;1.35;;;16.60;76.60;;;;;;10274001;28;20092;-60
2023/10/22 08:18:39;;;;;;;6.85;1.60;;;16.70;76.90;;;;;;10277567;28;20055;-61
2023/10/22 08:23:39;;;;;;;4.88;0.95;;;16.70;77.00;;;;;;10277153;28;20027;-60
2023/10/22 08:28:40;;;;;;;11.68;1.77;;;16.80;77.00;;;;;;10276975;28;20661;-62
2023/10/22 08:33:41;;;;;;;6.70;1.67;;;16.80;76.70;;;;;;10342301;28;20130;-63
2023/10/22 08:38:42;;;;;;;15.48;2.20;;;16.80;76.60;;;;;;10272659;28;20275;-61
2023/10/22 08:43:45;;;;;;;10.20;1.75;;;16.80;76.90;;;;;;10250569;28;20092;-61
2023/10/22 08:48:46;;;;;;;9.82;1.80;;;16.80;77.00;;;;;;10246306;28;20452;-61
2023/10/22 08:53:47;;;;;;;10.57;2.28;;;16.90;76.70;;;;;;10238365;28;20470;-60
2023/10/22 08:58:49;;;;;;;10.73;1.73;;;16.80;76.80;;;;;;10244803;28;20039;-60
2023/10/22 09:03:50;;;;;;;10.20;1.92;;;16.80;77.20;;;;;;10244231;28;20031;-60
2023/10/22 09:08:52;;;;;;;4.03;1.30;;;16.90;77.00;;;;;;10243477;28;20093;-60
2023/10/22 09:13:53;;;;;;;9.05;2.60;;;16.90;77.10;;;;;;10244266;28;20031;-60
2023/10/22 09:18:53;;;;;;;9.32;1.73;;;16.90;77.00;;;;;;10255959;28;20414;-60
2023/10/22 09:24:04;;;;;;;9.48;2.15;;;16.90;77.20;;;;;;10258220;28;20039;-60
2023/10/22 09:29:05;;;;;;;12.25;2.17;;;16.90;77.10;;;;;;10263329;28;20059;-60
2023/10/22 09:34:33;;;;;;;30.60;7.50;;;16.80;77.00;;;;;;10283452;28;20027;-60
2023/10/22 09:39:45;;;;;;;16.90;3.03;;;16.80;77.10;;;;;;10256521;28;20039;-59
2023/10/22 09:44:46;;;;;;;12.98;2.38;;;16.90;77.40;;;;;;10252877;28;20517;-57
2023/10/22 09:49:56;;;;;;;9.45;2.28;;;16.90;77.20;;;;;;10204536;29;20040;-58
2023/10/22 09:55:00;;;;;;;15.60;2.40;;;17.00;77.30;;;;;;10202437;28;20360;-59
2023/10/22 10:00:08;;;;;;;11.15;3.25;;;17.00;77.40;;;;;;10232004;28;20054;-59
2023/10/22 10:05:12;;;;;;;5.78;2.03;;;16.90;78.30;;;;;;10252634;28;20062;-59
2023/10/22 10:10:13;;;;;;;15.68;4.13;;;17.00;77.80;;;;;;10243148;28;20046;-60
2023/10/22 10:15:31;;;;;;;13.25;3.72;;;17.00;77.60;;;;;;10241180;28;20031;-58
2023/10/22 10:20:35;;;;;;;10.50;3.40;;;17.10;77.90;;;;;;10233989;28;20050;-61
2023/10/22 10:25:41;;;;;;;6.43;1.83;;;17.10;77.80;;;;;;10251365;28;20031;-58
2023/10/22 10:30:42;;;;;;;15.25;4.80;;;17.20;77.90;;;;;;10304334;28;20384;-58
2023/10/22 10:35:48;;;;;;;7.63;2.33;;;17.20;77.90;;;;;;10265582;28;20032;-58
2023/10/22 10:40:55;;;;;;;11.07;2.00;;;17.10;77.60;;;;;;10242585;29;20039;-58
2023/10/22 10:46:26;;;;;;;7.03;1.98;;;17.00;77.70;;;;;;10242110;28;20042;-58
2023/10/22 10:51:27;;;;;;;9.60;2.42;;;16.90;77.90;;;;;;10259868;28;20027;-57
2023/10/22 10:56:51;;;;;;;6.82;2.40;;;16.90;78.10;;;;;;10240251;28;20031;-57
2023/10/22 11:02:07;;;;;;;7.80;2.08;;;17.00;78.00;;;;;;10240227;28;20035;-59
2023/10/22 11:07:08;;;;;;;22.30;2.00;;;17.00;77.80;;;;;;10252154;28;20035;-59
2023/10/22 11:12:09;;;;;;;8.50;2.65;;;16.90;77.70;;;;;;10241828;28;20031;-58
2023/10/22 11:17:11;;;;;;;6.43;1.80;;;16.80;77.80;;;;;;10241675;28;20028;-59
2023/10/22 11:22:12;;;;;;;9.43;1.90;;;16.80;77.80;;;;;;10241562;28;20036;-58
2023/10/22 11:27:14;;;;;;;5.22;1.67;;;16.80;77.80;;;;;;10246524;28;20031;-58
2023/10/22 11:32:17;;;;;;;5.97;2.25;;;16.80;77.80;;;;;;10308216;28;20055;-59
2023/10/22 11:37:30;;;;;;;5.82;1.70;;;16.80;77.80;;;;;;10240743;28;20371;-59
2023/10/22 11:42:32;;;;;;;6.68;1.63;;;16.70;77.70;;;;;;10241157;29;20035;-59
2023/10/22 11:47:33;;;;;;;8.13;2.47;;;16.80;77.70;;;;;;10239636;28;20031;-59
2023/10/22 11:52:46;;;;;;;7.75;2.42;;;16.70;77.60;;;;;;10238937;28;20028;-59
2023/10/22 11:57:47;;;;;;;9.27;2.13;;;16.70;78.20;;;;;;10238949;28;20086;-56
2023/10/22 12:02:47;;;;;;;12.60;2.38;;;16.80;77.80;;;;;;10240501;28;20034;-58
2023/10/22 12:07:48;;;;;;;6.10;1.95;;;16.90;77.40;;;;;;10247632;28;20035;-58
2023/10/22 12:12:49;;;;;;;8.07;2.58;;;16.80;77.50;;;;;;10238311;28;20035;-58
2023/10/22 12:17:50;;;;;;;7.78;1.90;;;16.80;77.60;;;;;;10243059;28;20035;-57
2023/10/22 12:22:51;;;;;;;5.63;1.60;;;16.70;77.60;;;;;;10245749;28;20031;-58
2023/10/22 12:27:51;;;;;;;4.25;1.67;;;16.80;77.60;;;;;;10246601;28;20088;-58
2023/10/22 12:32:52;;;;;;;11.70;1.90;;;16.80;77.60;;;;;;10315339;28;20052;-59
2023/10/22 12:37:54;;;;;;;17.42;2.60;;;16.80;77.60;;;;;;10246240;28;20489;-56
2023/10/22 12:42:55;;;;;;;13.38;2.35;;;16.70;77.50;;;;;;10245396;28;20031;-60
2023/10/22 12:47:56;;;;;;;8.63;1.75;;;16.80;77.50;;;;;;10246170;28;20035;-58
2023/10/22 12:52:57;;;;;;;10.23;1.92;;;16.90;77.50;;;;;;10244792;28;20027;-59
2023/10/22 12:57:57;;;;;;;6.35;1.77;;;17.00;76.90;;;;;;10244782;28;20394;-58
2023/10/22 13:02:58;;;;;;;7.88;1.92;;;16.90;77.20;;;;;;10245838;29;20148;-58
2023/10/22 13:07:59;;;;;;;11.93;2.08;;;16.90;77.20;;;;;;10245670;28;20031;-62
2023/10/22 13:13:00;;;;;;;7.97;2.13;;;16.90;77.40;;;;;;10243987;29;20047;-62
2023/10/22 13:18:01;;;;;;;14.48;2.65;;;16.90;77.30;;;;;;10245966;28;20076;-58
2023/10/22 13:23:01;;;;;;;6.57;1.85;;;16.90;77.30;;;;;;10244617;28;20042;-58
2023/10/22 13:28:03;;;;;;;14.18;2.85;;;17.00;77.30;;;;;;10244445;28;20073;-58
2023/10/22 13:33:04;;;;;;;7.28;2.28;;;16.90;77.30;;;;;;10323779;28;20099;-58
2023/10/22 13:38:05;;;;;;;9.77;2.95;;;16.90;77.30;;;;;;10243844;28;20070;-58
2023/10/22 13:43:06;;;;;;;8.95;2.50;;;16.90;77.40;;;;;;10243653;29;20421;-59
2023/10/22 13:48:06;;;;;;;10.85;2.13;;;16.80;77.30;;;;;;10243408;28;20067;-59
2023/10/22 13:53:09;;;;;;;7.63;2.60;;;16.80;77.30;;;;;;10242063;29;20034;-59
2023/10/22 13:58:09;;;;;;;6.40;1.35;;;16.80;77.90;;;;;;10242663;28;20034;-59
2023/10/22 14:03:10;;;;;;;5.68;1.45;;;16.90;77.30;;;;;;10243461;29;20034;-59
2023/10/22 14:08:11;;;;;;;7.93;1.95;;;16.80;77.30;;;;;;10242244;28;20043;-59
2023/10/22 14:13:12;;;;;;;5.47;1.55;;;16.80;77.30;;;;;;10243594;29;20543;-59
2023/10/22 14:18:13;;;;;;;7.75;2.35;;;16.80;77.30;;;;;;10242111;28;20513;-59
2023/10/22 14:23:14;;;;;;;5.53;2.08;;;16.80;77.30;;;;;;10242364;29;20043;-59
2023/10/22 14:28:14;;;;;;;4.97;1.80;;;16.80;77.30;;;;;;10241678;28;20721;-59
2023/10/22 14:33:15;;;;;;;7.13;1.70;;;16.70;77.20;;;;;;10320508;28;20054;-59
2023/10/22 14:38:16;;;;;;;3.40;1.35;;;16.80;77.30;;;;;;10240955;28;20534;-60
2023/10/22 14:43:16;;;;;;;5.63;1.67;;;16.70;77.20;;;;;;10242458;28;20027;-59
2023/10/22 14:48:17;;;;;;;5.07;2.25;;;16.70;77.30;;;;;;10241209;28;20049;-60
2023/10/22 14:53:18;;;;;;;5.65;1.25;;;16.70;77.30;;;;;;10242254;28;20023;-59
2023/10/22 14:58:18;;;;;;;5.22;1.88;;;16.80;77.30;;;;;;10241396;28;20027;-59
2023/10/22 15:03:19;;;;;;;3.97;1.42;;;16.70;77.20;;;;;;10241232;29;20035;-59
2023/10/22 15:08:20;;;;;;;3.83;1.52;;;16.70;77.30;;;;;;10240968;28;20035;-59
2023/10/22 15:13:21;;;;;;;6.68;1.67;;;16.70;77.30;;;;;;10241397;28;20110;-59
2023/10/22 15:18:22;;;;;;;2.65;1.45;;;16.70;77.30;;;;;;10239169;28;20651;-59
2023/10/22 15:23:26;;;;;;;5.25;2.42;;;16.70;77.30;;;;;;10254356;28;20039;-58
2023/10/22 15:28:27;;;;;;;6.93;1.55;;;16.70;77.30;;;;;;10225093;28;20027;-56
2023/10/22 15:33:28;;;;;;;6.82;2.28;;;16.70;77.30;;;;;;10318673;28;20153;-58
2023/10/22 15:38:28;;;;;;;20.88;3.00;;;16.70;77.30;;;;;;10236121;28;20475;-59
2023/10/22 15:43:29;;;;;;;24.02;3.45;;;16.80;77.60;;;;;;10268142;28;20039;-57
2023/10/22 15:48:30;;;;;;;17.30;3.28;;;16.80;77.60;;;;;;10306898;28;20390;-58
2023/10/22 15:53:31;;;;;;;17.45;4.68;;;16.90;77.70;;;;;;10240200;29;20135;-58
2023/10/22 15:58:31;;;;;;;23.00;4.70;;;16.90;78.50;;;;;;10245591;28;20024;-58
2023/10/22 16:03:32;;;;;;;21.45;3.97;;;16.90;77.70;;;;;;10242491;28;20031;-59
2023/10/22 16:08:33;;;;;;;18.77;3.70;;;16.90;78.00;;;;;;10238669;28;20440;-62
2023/10/22 16:13:34;;;;;;;37.42;14.73;;;17.10;77.60;;;;;;10245656;28;20593;-56
2023/10/22 16:18:34;;;;;;;25.80;9.43;;;17.30;81.90;;;;;;10246156;29;20033;-56
2023/10/22 16:23:35;;;;;;;63.58;13.88;;;17.50;81.80;;;;;;10245242;28;20035;-58
2023/10/22 16:28:36;;;;;;;29.33;9.40;;;17.50;80.80;;;;;;10245766;28;20023;-56
2023/10/22 16:33:36;;;;;;;18.50;8.65;;;17.50;80.10;;;;;;10258072;28;20028;-55
2023/10/22 16:38:37;;;;;;;16.60;8.93;;;17.50;80.10;;;;;;10245315;28;20020;-56
2023/10/22 16:43:38;;;;;;;14.82;8.25;;;17.50;80.00;;;;;;10244654;28;20030;-57
2023/10/22 16:48:39;;;;;;;18.70;8.85;;;17.40;79.70;;;;;;10245521;28;20035;-57
2023/10/22 16:53:39;;;;;;;15.98;9.55;;;17.40;79.40;;;;;;10235093;28;20027;-59
2023/10/22 16:58:40;;;;;;;17.45;7.40;;;17.30;79.50;;;;;;10230938;28;20082;-59
2023/10/22 17:03:41;;;;;;;19.10;9.00;;;17.10;79.70;;;;;;10233748;28;20628;-59
2023/10/22 17:08:42;;;;;;;29.95;8.00;;;17.00;79.70;;;;;;10245436;28;20035;-59
2023/10/22 17:13:48;;;;;;;16.15;7.30;;;17.00;79.80;;;;;;10245075;28;20078;-58
2023/10/22 17:18:49;;;;;;;19.83;6.90;;;16.90;79.70;;;;;;10245104;28;20372;-59
2023/10/22 17:23:50;;;;;;;12.68;6.55;;;16.90;79.80;;;;;;10244677;28;20030;-59
2023/10/22 17:28:50;;;;;;;13.57;6.72;;;16.90;79.70;;;;;;10247783;28;20414;-59
2023/10/22 17:33:51;;;;;;;15.02;6.00;;;16.90;79.70;;;;;;10271681;28;20031;-58
2023/10/22 17:38:52;;;;;;;13.27;7.30;;;16.80;79.60;;;;;;10243857;28;20094;-59
2023/10/22 17:43:53;;;;;;;11.73;6.03;;;16.80;79.50;;;;;;10239744;28;20031;-59
2023/10/22 17:48:54;;;;;;;21.25;7.32;;;16.80;79.30;;;;;;10243596;28;20040;-57
2023/10/22 17:53:54;;;;;;;18.98;7.35;;;16.90;79.20;;;;;;10236629;28;20498;-58
2023/10/22 17:58:55;;;;;;;13.63;6.05;;;16.90;79.10;;;;;;10273885;28;20124;-57
2023/10/22 18:03:56;;;;;;;17.10;6.13;;;16.90;79.10;;;;;;10268642;28;20039;-55
2023/10/22 18:08:56;;;;;;;14.15;5.93;;;17.00;79.20;;;;;;10242514;28;20493;-58
2023/10/22 18:13:59;;;;;;;9.85;5.35;;;17.00;79.00;;;;;;10242345;28;20489;-58
2023/10/22 18:19:01;;;;;;;12.70;6.10;;;17.10;78.80;;;;;;10237870;28;20521;-58
2023/10/22 18:24:02;;;;;;;11.75;5.30;;;17.10;78.80;;;;;;10222981;28;20035;-58
2023/10/22 18:29:02;;;;;;;13.05;6.10;;;17.00;79.00;;;;;;10236940;28;20062;-60
2023/10/22 18:34:03;;;;;;;16.95;6.28;;;17.00;79.20;;;;;;10242717;28;20105;-60
2023/10/22 18:39:04;;;;;;;10.32;5.20;;;16.90;79.20;;;;;;10242711;29;20031;-59
2023/10/22 18:44:06;;;;;;;14.75;7.03;;;16.90;79.30;;;;;;10242244;28;20039;-60
2023/10/22 18:49:07;;;;;;;8.93;4.85;;;16.90;79.30;;;;;;10242775;28;20118;-59
2023/10/22 18:54:09;;;;;;;10.98;5.28;;;16.90;79.30;;;;;;10241827;28;20027;-59
2023/10/22 18:59:10;;;;;;;10.95;4.53;;;16.90;79.40;;;;;;10278733;28;20392;-60
2023/10/22 19:04:11;;;;;;;8.10;5.25;;;16.90;79.40;;;;;;10241406;28;20031;-60
2023/10/22 19:09:12;;;;;;;11.23;5.00;;;16.80;79.40;;;;;;10240279;28;20035;-59
2023/10/22 19:14:17;;;;;;;9.60;4.70;;;16.80;79.40;;;;;;10241491;28;20031;-60
2023/10/22 19:19:18;;;;;;;8.68;4.88;;;16.80;79.30;;;;;;10241578;28;20023;-59
2023/10/22 19:24:19;;;;;;;18.95;5.32;;;16.80;79.30;;;;;;10239696;28;20035;-60
2023/10/22 19:29:19;;;;;;;11.27;6.00;;;16.80;79.30;;;;;;10240325;28;20403;-59
2023/10/22 19:34:20;;;;;;;10.63;4.38;;;16.80;79.30;;;;;;10271392;28;20031;-59
2023/10/22 19:39:21;;;;;;;8.35;4.40;;;16.80;79.50;;;;;;10260667;28;20409;-59
2023/10/22 19:44:21;;;;;;;9.65;4.50;;;16.80;79.40;;;;;;10240412;28;20032;-60
2023/10/22 19:49:22;;;;;;;6.63;3.65;;;16.80;79.90;;;;;;10258968;28;20065;-59
2023/10/22 19:54:25;;;;;;;8.05;3.60;;;16.80;79.30;;;;;;10240759;28;20421;-59
2023/10/22 19:59:26;;;;;;;7.57;3.88;;;16.70;79.30;;;;;;10241373;29;20051;-60
2023/10/22 20:04:28;;;;;;;8.73;4.93;;;16.70;79.20;;;;;;10240696;28;20126;-59
2023/10/22 20:09:28;;;;;;;6.07;3.90;;;16.70;79.20;;;;;;10242637;28;20120;-59
2023/10/22 20:14:29;;;;;;;8.00;4.95;;;16.70;79.20;;;;;;10243162;28;20031;-59
2023/10/22 20:19:30;;;;;;;7.68;3.65;;;16.70;79.10;;;;;;10240494;29;20038;-60
2023/10/22 20:24:32;;;;;;;6.22;4.05;;;16.70;79.10;;;;;;10240320;28;20035;-60
2023/10/22 20:29:33;;;;;;;6.13;3.70;;;16.60;79.10;;;;;;10250455;28;20071;-60
2023/10/22 20:34:34;;;;;;;5.30;3.55;;;16.60;79.00;;;;;;10309088;28;20034;-60
2023/10/22 20:39:35;;;;;;;6.30;4.00;;;16.60;79.00;;;;;;10244259;28;20035;-60
2023/10/22 20:44:35;;;;;;;5.93;3.38;;;16.60;79.00;;;;;;10246969;28;20527;-60
2023/10/22 20:49:36;;;;;;;5.75;3.15;;;16.60;79.00;;;;;;10246405;29;20033;-60
2023/10/22 20:54:37;;;;;;;7.30;3.30;;;16.60;78.90;;;;;;10246484;28;20026;-60
2023/10/22 20:59:37;;;;;;;4.88;3.30;;;16.60;78.90;;;;;;10246135;28;20046;-60
2023/10/22 21:04:40;;;;;;;8.82;3.95;;;16.60;78.80;;;;;;10245643;28;20026;-60
2023/10/22 21:09:40;;;;;;;7.80;3.92;;;16.60;78.80;;;;;;10246024;28;20038;-60
2023/10/22 21:14:41;;;;;;;7.28;4.05;;;16.60;78.70;;;;;;10245049;28;20023;-60
2023/10/22 21:19:42;;;;;;;5.70;3.17;;;16.50;78.70;;;;;;10245968;28;20035;-60
2023/10/22 21:24:43;;;;;;;5.38;3.20;;;16.50;78.70;;;;;;10244032;28;20069;-60
2023/10/22 21:29:43;;;;;;;4.22;2.70;;;16.50;78.70;;;;;;10247484;28;20052;-60
2023/10/22 21:34:44;;;;;;;4.72;3.03;;;16.50;78.70;;;;;;10309886;28;20098;-60
2023/10/22 21:39:45;;;;;;;5.15;3.13;;;16.50;78.70;;;;;;10245074;29;20465;-61
2023/10/22 21:44:46;;;;;;;5.00;3.03;;;16.50;78.70;;;;;;10244786;28;20402;-60
2023/10/22 21:49:47;;;;;;;3.80;2.42;;;16.50;78.60;;;;;;10244349;28;20027;-60
2023/10/22 21:54:51;;;;;;;4.32;2.85;;;16.50;78.60;;;;;;10244487;28;20034;-60
2023/10/22 21:59:52;;;;;;;5.35;3.03;;;16.50;78.60;;;;;;10244503;28;20035;-60
2023/10/22 22:04:52;;;;;;;4.47;2.80;;;16.50;78.60;;;;;;10244265;29;20020;-60
2023/10/22 22:09:53;;;;;;;4.82;2.60;;;16.50;78.50;;;;;;10244058;28;20715;-61
2023/10/22 22:14:54;;;;;;;4.22;2.88;;;16.50;78.50;;;;;;10243962;28;20458;-60
2023/10/22 22:19:55;;;;;;;3.65;2.50;;;16.50;78.40;;;;;;10243860;29;20031;-60
2023/10/22 22:24:55;;;;;;;5.35;2.97;;;16.50;78.30;;;;;;10244726;28;20031;-60
2023/10/22 22:29:56;;;;;;;5.13;3.05;;;16.50;78.30;;;;;;10265445;28;20039;-60
2023/10/22 22:34:57;;;;;;;3.40;2.42;;;16.40;78.30;;;;;;10299955;28;20098;-60
2023/10/22 22:39:57;;;;;;;3.83;2.35;;;16.40;78.30;;;;;;10243226;29;20374;-61
2023/10/22 22:44:58;;;;;;;5.85;2.80;;;16.40;78.30;;;;;;10242932;28;20532;-60
2023/10/22 22:49:59;;;;;;;5.28;2.70;;;16.40;78.30;;;;;;10242826;29;20038;-61
2023/10/22 22:54:59;;;;;;;5.10;2.50;;;16.40;78.20;;;;;;10242472;28;20113;-61
2023/10/22 23:00:04;;;;;;;2.88;2.17;;;16.50;78.30;;;;;;10242025;29;20034;-60
2023/10/22 23:05:05;;;;;;;5.45;2.70;;;16.40;78.20;;;;;;10241159;28;20055;-60
2023/10/22 23:10:06;;;;;;;4.75;2.20;;;16.40;78.20;;;;;;10242245;28;20042;-61
2023/10/22 23:15:07;;;;;;;6.78;2.40;;;16.40;78.20;;;;;;10242016;28;20396;-60
2023/10/22 23:20:09;;;;;;;3.25;2.53;;;16.40;78.20;;;;;;10242345;29;20035;-60
2023/10/22 23:25:10;;;;;;;4.07;2.40;;;16.40;78.20;;;;;;10241756;28;20066;-60
2023/10/22 23:30:11;;;;;;;4.47;2.58;;;16.40;78.20;;;;;;10273988;28;20047;-60
2023/10/22 23:35:12;;;;;;;3.72;2.60;;;16.40;78.60;;;;;;10286896;28;20036;-61
2023/10/22 23:40:13;;;;;;;3.53;2.53;;;16.40;78.00;;;;;;10241629;29;20027;-60
2023/10/22 23:45:14;;;;;;;3.90;2.17;;;16.40;78.00;;;;;;10241154;28;20459;-61
2023/10/22 23:50:15;;;;;;;3.92;2.20;;;16.40;78.00;;;;;;10241555;29;20055;-60
2023/10/22 23:55:15;;;;;;;3.13;2.10;;;16.40;78.00;;;;;;10241021;28;20034;-61
